sensor_id;sensor_type;location;lat;lon;timestamp;pressure;altitude;pressure_sealevel;temperature;humidity
77325;BME280;66387;53.440;10.390;2023-08-01T00:00:06;99130.06;;;15.42;100.00
77325;BME280;66387;53.440;10.390;2023-08-01T00:02:33;99122.03;;;15.45;100.00
77325;BME280;66387;53.440;10.390;2023-08-01T00:04:58;99122.81;;;15.47;100.00
77325;BME280;66387;53.440;10.390;2023-08-01T00:07:26;99123.00;;;15.44;100.00
77325;BME280;66387;53.440;10.390;2023-08-01T00:09:52;99121.03;;;15.47;100.00
77325;BME280;66387;53.440;10.390;2023-08-01T00:12:17;99112.25;;;15.48;100.00
77325;BME280;66387;53.440;10.390;2023-08-01T00:14:42;99118.50;;;15.46;100.00
77325;BME280;66387;53.440;10.390;2023-08-01T00:17:08;99106.97;;;15.50;100.00
77325;BME280;66387;53.440;10.390;2023-08-01T00:19:33;99107.00;;;15.48;100.00
77325;BME280;66387;53.440;10.390;2023-08-01T00:21:58;99108.66;;;15.51;100.00
77325;BME280;66387;53.440;10.390;2023-08-01T00:24:23;99097.59;;;15.46;100.00
77325;BME280;66387;53.440;10.390;2023-08-01T00:26:49;99089.84;;;15.44;100.00
77325;BME280;66387;53.440;10.390;2023-08-01T00:29:14;99073.38;;;15.42;100.00
77325;BME280;66387;53.440;10.390;2023-08-01T00:31:39;99077.94;;;15.39;100.00
77325;BME280;66387;53.440;10.390;2023-08-01T00:34:04;99064.13;;;15.37;100.00
77325;BME280;66387;53.440;10.390;2023-08-01T00:36:30;99060.00;;;15.33;100.00
77325;BME280;66387;53.440;10.390;2023-08-01T00:38:55;99060.91;;;15.32;100.00
77325;BME280;66387;53.440;10.390;2023-08-01T00:41:20;99052.16;;;15.33;100.00
77325;BME280;66387;53.440;10.390;2023-08-01T00:43:45;99047.59;;;15.36;100.00
77325;BME280;66387;53.440;10.390;2023-08-01T00:46:10;99045.06;;;15.35;100.00
77325;BME280;66387;53.440;10.390;2023-08-01T00:48:36;99036.47;;;15.33;100.00
77325;BME280;66387;53.440;10.390;2023-08-01T00:51:05;99033.66;;;15.36;100.00
77325;BME280;66387;53.440;10.390;2023-08-01T00:53:31;99034.41;;;15.38;100.00
77325;BME280;66387;53.440;10.390;2023-08-01T00:55:58;99028.38;;;15.37;100.00
77325;BME280;66387;53.440;10.390;2023-08-01T00:58:23;99026.56;;;15.38;100.00
77325;BME280;66387;53.440;10.390;2023-08-01T01:00:49;99030.22;;;15.35;100.00
77325;BME280;66387;53.440;10.390;2023-08-01T01:03:14;99021.34;;;15.38;100.00
77325;BME280;66387;53.440;10.390;2023-08-01T01:05:44;99023.03;;;15.39;100.00
77325;BME280;66387;53.440;10.390;2023-08-01T01:08:10;99015.13;;;15.40;100.00
77325;BME280;66387;53.440;10.390;2023-08-01T01:10:35;99011.66;;;15.40;100.00
77325;BME280;66387;53.440;10.390;2023-08-01T01:13:01;99008.13;;;15.41;100.00
77325;BME280;66387;53.440;10.390;2023-08-01T01:15:26;98999.31;;;15.42;100.00
77325;BME280;66387;53.440;10.390;2023-08-01T01:17:51;98994.19;;;15.40;100.00
77325;BME280;66387;53.440;10.390;2023-08-01T01:20:23;98995.97;;;15.40;100.00
77325;BME280;66387;53.440;10.390;2023-08-01T01:22:51;98995.13;;;15.39;100.00
77325;BME280;66387;53.440;10.390;2023-08-01T01:25:18;98993.34;;;15.40;100.00
77325;BME280;66387;53.440;10.390;2023-08-01T01:27:44;98994.09;;;15.42;100.00
77325;BME280;66387;53.440;10.390;2023-08-01T01:30:11;98986.25;;;15.42;100.00
77325;BME280;66387;53.440;10.390;2023-08-01T01:32:36;98986.16;;;15.43;100.00
77325;BME280;66387;53.440;10.390;2023-08-01T01:35:03;98987.00;;;15.44;100.00
77325;BME280;66387;53.440;10.390;2023-08-01T01:37:29;98992.25;;;15.44;100.00
77325;BME280;66387;53.440;10.390;2023-08-01T01:39:54;98988.66;;;15.45;100.00
77325;BME280;66387;53.440;10.390;2023-08-01T01:42:20;98978.06;;;15.48;100.00
77325;BME280;66387;53.440;10.390;2023-08-01T01:44:45;98972.81;;;15.48;100.00
77325;BME280;66387;53.440;10.390;2023-08-01T01:47:10;98979.06;;;15.45;100.00
77325;BME280;66387;53.440;10.390;2023-08-01T01:49:35;98970.13;;;15.49;100.00
77325;BME280;66387;53.440;10.390;2023-08-01T01:52:01;98971.03;;;15.48;100.00
77325;BME280;66387;53.440;10.390;2023-08-01T01:54:26;98957.94;;;15.48;100.00
77325;BME280;66387;53.440;10.390;2023-08-01T01:56:51;98951.97;;;15.46;100.00
77325;BME280;66387;53.440;10.390;2023-08-01T01:59:16;98947.59;;;15.47;100.00
77325;BME280;66387;53.440;10.390;2023-08-01T02:01:42;98938.81;;;15.48;100.00
77325;BME280;66387;53.440;10.390;2023-08-01T02:04:07;98944.97;;;15.47;100.00
77325;BME280;66387;53.440;10.390;2023-08-01T02:06:32;98943.06;;;15.50;100.00
77325;BME280;66387;53.440;10.390;2023-08-01T02:08:57;98937.75;;;15.52;100.00
77325;BME280;66387;53.440;10.390;2023-08-01T02:11:23;98938.69;;;15.51;100.00
77325;BME280;66387;53.440;10.390;2023-08-01T02:13:48;98934.09;;;15.54;100.00
77325;BME280;66387;53.440;10.390;2023-08-01T02:16:13;98925.41;;;15.54;100.00
77325;BME280;66387;53.440;10.390;2023-08-01T02:18:38;98924.28;;;15.58;100.00
77325;BME280;66387;53.440;10.390;2023-08-01T02:21:04;98922.53;;;15.58;100.00
77325;BME280;66387;53.440;10.390;2023-08-01T02:23:29;98922.59;;;15.57;100.00
77325;BME280;66387;53.440;10.390;2023-08-01T02:25:54;98918.94;;;15.59;100.00
77325;BME280;66387;53.440;10.390;2023-08-01T02:28:19;98926.72;;;15.61;100.00
77325;BME280;66387;53.440;10.390;2023-08-01T02:30:45;98928.41;;;15.62;100.00
77325;BME280;66387;53.440;10.390;2023-08-01T02:33:10;98925.97;;;15.59;100.00
77325;BME280;66387;53.440;10.390;2023-08-01T02:35:35;98922.41;;;15.60;100.00
77325;BME280;66387;53.440;10.390;2023-08-01T02:38:02;98927.56;;;15.61;100.00
77325;BME280;66387;53.440;10.390;2023-08-01T02:40:28;98924.84;;;15.63;100.00
77325;BME280;66387;53.440;10.390;2023-08-01T02:42:53;98930.06;;;15.63;100.00
77325;BME280;66387;53.440;10.390;2023-08-01T02:45:19;98915.34;;;15.62;100.00
77325;BME280;66387;53.440;10.390;2023-08-01T02:47:44;98910.94;;;15.62;100.00
77325;BME280;66387;53.440;10.390;2023-08-01T02:50:09;98917.00;;;15.63;100.00
77325;BME280;66387;53.440;10.390;2023-08-01T02:52:34;98914.38;;;15.63;100.00
77325;BME280;66387;53.440;10.390;2023-08-01T02:55:00;98914.22;;;15.66;100.00
77325;BME280;66387;53.440;10.390;2023-08-01T02:57:25;98907.28;;;15.65;100.00
77325;BME280;66387;53.440;10.390;2023-08-01T02:59:50;98914.22;;;15.66;100.00
77325;BME280;66387;53.440;10.390;2023-08-01T03:02:16;98916.00;;;15.65;100.00
77325;BME280;66387;53.440;10.390;2023-08-01T03:04:41;98914.22;;;15.66;100.00
77325;BME280;66387;53.440;10.390;2023-08-01T03:07:06;98906.38;;;15.66;100.00
77325;BME280;66387;53.440;10.390;2023-08-01T03:09:34;98897.56;;;15.67;100.00
77325;BME280;66387;53.440;10.390;2023-08-01T03:12:03;98896.72;;;15.66;100.00
77325;BME280;66387;53.440;10.390;2023-08-01T03:14:29;98889.72;;;15.67;100.00
77325;BME280;66387;53.440;10.390;2023-08-01T03:16:54;98894.22;;;15.65;100.00
77325;BME280;66387;53.440;10.390;2023-08-01T03:19:19;98888.97;;;15.65;100.00
77325;BME280;66387;53.440;10.390;2023-08-01T03:21:44;98890.75;;;15.64;100.00
77325;BME280;66387;53.440;10.390;2023-08-01T03:24:10;98873.19;;;15.66;100.00
77325;BME280;66387;53.440;10.390;2023-08-01T03:26:36;98874.78;;;15.69;100.00
77325;BME280;66387;53.440;10.390;2023-08-01T03:29:02;98875.72;;;15.68;100.00
77325;BME280;66387;53.440;10.390;2023-08-01T03:31:27;98878.25;;;15.69;100.00
77325;BME280;66387;53.440;10.390;2023-08-01T03:33:52;98870.41;;;15.69;100.00
77325;BME280;66387;53.440;10.390;2023-08-01T03:36:17;98868.13;;;15.63;100.00
77325;BME280;66387;53.440;10.390;2023-08-01T03:38:43;98870.47;;;15.68;100.00
77325;BME280;66387;53.440;10.390;2023-08-01T03:41:08;98868.63;;;15.70;100.00
77325;BME280;66387;53.440;10.390;2023-08-01T03:43:33;98866.00;;;15.70;100.00
77325;BME280;66387;53.440;10.390;2023-08-01T03:45:59;98860.88;;;15.68;100.00
77325;BME280;66387;53.440;10.390;2023-08-01T03:48:24;98865.25;;;15.68;100.00
77325;BME280;66387;53.440;10.390;2023-08-01T03:50:49;98861.72;;;15.69;100.00
77325;BME280;66387;53.440;10.390;2023-08-01T03:53:15;98853.28;;;15.64;100.00
77325;BME280;66387;53.440;10.390;2023-08-01T03:55:40;98854.78;;;15.68;100.00
77325;BME280;66387;53.440;10.390;2023-08-01T03:58:05;98849.56;;;15.68;100.00
77325;BME280;66387;53.440;10.390;2023-08-01T04:00:31;98859.09;;;15.69;100.00
77325;BME280;66387;53.440;10.390;2023-08-01T04:02:58;98853.09;;;15.67;100.00
77325;BME280;66387;53.440;10.390;2023-08-01T04:05:23;98860.88;;;15.68;100.00
77325;BME280;66387;53.440;10.390;2023-08-01T04:07:49;98858.97;;;15.70;100.00
77325;BME280;66387;53.440;10.390;2023-08-01T04:10:14;98857.47;;;15.66;100.00
77325;BME280;66387;53.440;10.390;2023-08-01T04:12:40;98857.31;;;15.69;100.00
77325;BME280;66387;53.440;10.390;2023-08-01T04:15:07;98853.00;;;15.68;100.00
77325;BME280;66387;53.440;10.390;2023-08-01T04:17:32;98853.09;;;15.67;100.00
77325;BME280;66387;53.440;10.390;2023-08-01T04:19:57;98851.25;;;15.69;100.00
77325;BME280;66387;53.440;10.390;2023-08-01T04:22:23;98861.06;;;15.65;100.00
77325;BME280;66387;53.440;10.390;2023-08-01T04:24:48;98861.91;;;15.66;100.00
77325;BME280;66387;53.440;10.390;2023-08-01T04:27:13;98865.44;;;15.65;100.00
77325;BME280;66387;53.440;10.390;2023-08-01T04:29:42;98867.13;;;15.66;100.00
77325;BME280;66387;53.440;10.390;2023-08-01T04:32:07;98869.81;;;15.64;100.00
77325;BME280;66387;53.440;10.390;2023-08-01T04:34:33;98865.44;;;15.65;100.00
77325;BME280;66387;53.440;10.390;2023-08-01T04:36:58;98858.44;;;15.65;100.00
77325;BME280;66387;53.440;10.390;2023-08-01T04:39:23;98857.41;;;15.68;100.00
77325;BME280;66387;53.440;10.390;2023-08-01T04:41:48;98865.53;;;15.63;100.00
77325;BME280;66387;53.440;10.390;2023-08-01T04:44:15;98860.22;;;15.65;100.00
77325;BME280;66387;53.440;10.390;2023-08-01T04:46:40;98864.41;;;15.67;100.00
77325;BME280;66387;53.440;10.390;2023-08-01T04:49:05;98854.78;;;15.68;100.00
77325;BME280;66387;53.440;10.390;2023-08-01T04:51:31;98859.28;;;15.66;100.00
77325;BME280;66387;53.440;10.390;2023-08-01T04:53:56;98860.94;;;15.67;100.00
77325;BME280;66387;53.440;10.390;2023-08-01T04:56:21;98860.94;;;15.67;100.00
77325;BME280;66387;53.440;10.390;2023-08-01T04:58:46;98852.94;;;15.70;100.00
77325;BME280;66387;53.440;10.390;2023-08-01T05:01:12;98850.19;;;15.72;100.00
77325;BME280;66387;53.440;10.390;2023-08-01T05:03:37;98851.97;;;15.71;100.00
77325;BME280;66387;53.440;10.390;2023-08-01T05:06:02;98845.63;;;15.75;100.00
77325;BME280;66387;53.440;10.390;2023-08-01T05:08:28;98846.28;;;15.79;100.00
77325;BME280;66387;53.440;10.390;2023-08-01T05:10:53;98851.41;;;15.80;100.00
77325;BME280;66387;53.440;10.390;2023-08-01T05:13:18;98844.41;;;15.81;100.00
77325;BME280;66387;53.440;10.390;2023-08-01T05:15:45;98844.41;;;15.81;100.00
77325;BME280;66387;53.440;10.390;2023-08-01T05:18:12;98839.91;;;15.83;100.00
77325;BME280;66387;53.440;10.390;2023-08-01T05:20:37;98848.59;;;15.83;100.00
77325;BME280;66387;53.440;10.390;2023-08-01T05:23:03;98834.69;;;15.83;100.00
77325;BME280;66387;53.440;10.390;2023-08-01T05:25:28;98844.09;;;15.85;100.00
77325;BME280;66387;53.440;10.390;2023-08-01T05:27:53;98840.63;;;15.85;100.00
77325;BME280;66387;53.440;10.390;2023-08-01T05:30:18;98845.06;;;15.84;100.00
77325;BME280;66387;53.440;10.390;2023-08-01T05:32:44;98848.41;;;15.86;100.00
77325;BME280;66387;53.440;10.390;2023-08-01T05:35:10;98844.75;;;15.89;100.00
77325;BME280;66387;53.440;10.390;2023-08-01T05:37:36;98847.94;;;15.94;100.00
77325;BME280;66387;53.440;10.390;2023-08-01T05:40:04;98851.41;;;15.94;100.00
77325;BME280;66387;53.440;10.390;2023-08-01T05:42:29;98850.53;;;15.94;100.00
77325;BME280;66387;53.440;10.390;2023-08-01T05:44:55;98853.25;;;15.92;100.00
77325;BME280;66387;53.440;10.390;2023-08-01T05:47:20;98852.88;;;15.98;100.00
77325;BME280;66387;53.440;10.390;2023-08-01T05:49:47;98852.69;;;16.01;100.00
77325;BME280;66387;53.440;10.390;2023-08-01T05:52:13;98848.28;;;16.02;100.00
77325;BME280;66387;53.440;10.390;2023-08-01T05:54:38;98853.63;;;16.00;100.00
77325;BME280;66387;53.440;10.390;2023-08-01T05:57:04;98858.84;;;16.00;100.00
77325;BME280;66387;53.440;10.390;2023-08-01T05:59:29;98849.31;;;15.99;100.00
77325;BME280;66387;53.440;10.390;2023-08-01T06:01:54;98851.84;;;16.01;100.00
77325;BME280;66387;53.440;10.390;2023-08-01T06:04:20;98849.69;;;15.93;100.00
77325;BME280;66387;53.440;10.390;2023-08-01T06:06:45;98854.22;;;15.91;100.00
77325;BME280;66387;53.440;10.390;2023-08-01T06:09:10;98855.88;;;15.92;100.00
77325;BME280;66387;53.440;10.390;2023-08-01T06:11:35;98847.84;;;15.95;100.00
77325;BME280;66387;53.440;10.390;2023-08-01T06:14:01;98854.75;;;15.96;100.00
77325;BME280;66387;53.440;10.390;2023-08-01T06:16:26;98849.91;;;15.90;100.00
77325;BME280;66387;53.440;10.390;2023-08-01T06:18:51;98843.75;;;15.91;100.00
77325;BME280;66387;53.440;10.390;2023-08-01T06:21:16;98851.41;;;15.94;100.00
77325;BME280;66387;53.440;10.390;2023-08-01T06:23:42;98838.59;;;15.90;100.00
77325;BME280;66387;53.440;10.390;2023-08-01T06:26:07;98848.22;;;15.89;100.00
77325;BME280;66387;53.440;10.390;2023-08-01T06:28:32;98842.31;;;15.86;100.00
77325;BME280;66387;53.440;10.390;2023-08-01T06:30:58;98841.50;;;15.85;100.00
77325;BME280;66387;53.440;10.390;2023-08-01T06:33:23;98848.41;;;15.86;100.00
77325;BME280;66387;53.440;10.390;2023-08-01T06:35:49;98850.38;;;15.83;100.00
77325;BME280;66387;53.440;10.390;2023-08-01T06:38:14;98854.03;;;15.80;100.00
77325;BME280;66387;53.440;10.390;2023-08-01T06:40:39;98850.00;;;15.75;100.00
77325;BME280;66387;53.440;10.390;2023-08-01T06:43:04;98856.94;;;15.76;100.00
77325;BME280;66387;53.440;10.390;2023-08-01T06:45:29;98853.19;;;15.80;100.00
77325;BME280;66387;53.440;10.390;2023-08-01T06:47:55;98855.81;;;15.80;100.00
77325;BME280;66387;53.440;10.390;2023-08-01T06:50:20;98857.66;;;15.78;100.00
77325;BME280;66387;53.440;10.390;2023-08-01T06:52:45;98854.88;;;15.81;100.00
77325;BME280;66387;53.440;10.390;2023-08-01T06:55:10;98855.16;;;15.76;100.00
77325;BME280;66387;53.440;10.390;2023-08-01T06:57:36;98861.13;;;15.78;100.00
77325;BME280;66387;53.440;10.390;2023-08-01T07:00:01;98858.63;;;15.77;100.00
77325;BME280;66387;53.440;10.390;2023-08-01T07:02:27;98858.69;;;15.75;100.00
77325;BME280;66387;53.440;10.390;2023-08-01T07:04:52;98856.72;;;15.79;100.00
77325;BME280;66387;53.440;10.390;2023-08-01T07:07:17;98858.69;;;15.89;100.00
77325;BME280;66387;53.440;10.390;2023-08-01T07:09:42;98864.69;;;15.91;100.00
77325;BME280;66387;53.440;10.390;2023-08-01T07:12:08;98864.72;;;16.04;100.00
77325;BME280;66387;53.440;10.390;2023-08-01T07:14:33;98865.38;;;16.07;100.00
77325;BME280;66387;53.440;10.390;2023-08-01T07:16:58;98863.81;;;16.05;100.00
77325;BME280;66387;53.440;10.390;2023-08-01T07:19:23;98863.34;;;15.98;100.00
77325;BME280;66387;53.440;10.390;2023-08-01T07:21:49;98879.97;;;15.97;100.00
77325;BME280;66387;53.440;10.390;2023-08-01T07:24:14;98863.56;;;15.95;100.00
77325;BME280;66387;53.440;10.390;2023-08-01T07:26:40;98871.94;;;16.00;100.00
77325;BME280;66387;53.440;10.390;2023-08-01T07:29:05;98861.19;;;16.05;100.00
77325;BME280;66387;53.440;10.390;2023-08-01T07:31:33;98870.78;;;16.18;100.00
77325;BME280;66387;53.440;10.390;2023-08-01T07:33:58;98864.97;;;16.28;100.00
77325;BME280;66387;53.440;10.390;2023-08-01T07:36:24;98866.97;;;16.37;100.00
77325;BME280;66387;53.440;10.390;2023-08-01T07:38:49;98867.09;;;16.35;100.00
77325;BME280;66387;53.440;10.390;2023-08-01T07:41:14;98863.44;;;16.38;100.00
77325;BME280;66387;53.440;10.390;2023-08-01T07:43:39;98870.69;;;16.47;100.00
77325;BME280;66387;53.440;10.390;2023-08-01T07:46:05;98870.97;;;16.56;100.00
77325;BME280;66387;53.440;10.390;2023-08-01T07:48:30;98869.19;;;16.57;100.00
77325;BME280;66387;53.440;10.390;2023-08-01T07:50:55;98863.38;;;16.52;100.00
77325;BME280;66387;53.440;10.390;2023-08-01T07:53:20;98869.50;;;16.65;100.00
77325;BME280;66387;53.440;10.390;2023-08-01T07:55:46;98867.22;;;16.73;100.00
77325;BME280;66387;53.440;10.390;2023-08-01T07:58:11;98874.84;;;16.90;100.00
77325;BME280;66387;53.440;10.390;2023-08-01T08:00:36;98874.94;;;16.89;100.00
77325;BME280;66387;53.440;10.390;2023-08-01T08:03:02;98875.28;;;16.97;100.00
77325;BME280;66387;53.440;10.390;2023-08-01T08:05:27;98878.41;;;17.02;100.00
77325;BME280;66387;53.440;10.390;2023-08-01T08:07:52;98880.00;;;17.04;100.00
77325;BME280;66387;53.440;10.390;2023-08-01T08:10:17;98872.56;;;17.11;100.00
77325;BME280;66387;53.440;10.390;2023-08-01T08:12:43;98878.31;;;17.16;100.00
77325;BME280;66387;53.440;10.390;2023-08-01T08:15:08;98879.66;;;17.09;100.00
77325;BME280;66387;53.440;10.390;2023-08-01T08:17:34;98882.28;;;17.09;100.00
77325;BME280;66387;53.440;10.390;2023-08-01T08:19:59;98887.13;;;17.02;100.00
77325;BME280;66387;53.440;10.390;2023-08-01T08:22:24;98883.66;;;17.02;100.00
77325;BME280;66387;53.440;10.390;2023-08-01T08:24:49;98886.06;;;17.05;100.00
77325;BME280;66387;53.440;10.390;2023-08-01T08:27:15;98886.50;;;17.11;100.00
77325;BME280;66387;53.440;10.390;2023-08-01T08:29:40;98883.88;;;17.11;100.00
77325;BME280;66387;53.440;10.390;2023-08-01T08:32:06;98890.50;;;17.17;100.00
77325;BME280;66387;53.440;10.390;2023-08-01T08:34:31;98887.44;;;17.10;100.00
77325;BME280;66387;53.440;10.390;2023-08-01T08:36:57;98885.03;;;17.20;100.00
77325;BME280;66387;53.440;10.390;2023-08-01T08:39:22;98891.00;;;17.09;100.00
77325;BME280;66387;53.440;10.390;2023-08-01T08:41:49;98896.28;;;17.35;100.00
77325;BME280;66387;53.440;10.390;2023-08-01T08:44:16;98883.47;;;17.43;100.00
77325;BME280;66387;53.440;10.390;2023-08-01T08:46:43;98891.91;;;17.60;100.00
77325;BME280;66387;53.440;10.390;2023-08-01T08:49:09;98901.56;;;17.60;100.00
77325;BME280;66387;53.440;10.390;2023-08-01T08:51:36;98893.88;;;17.82;100.00
77325;BME280;66387;53.440;10.390;2023-08-01T08:54:04;98893.56;;;17.99;100.00
77325;BME280;66387;53.440;10.390;2023-08-01T08:56:30;98887.19;;;18.14;100.00
77325;BME280;66387;53.440;10.390;2023-08-01T08:58:56;98893.97;;;18.30;100.00
77325;BME280;66387;53.440;10.390;2023-08-01T09:01:22;98891.78;;;18.24;98.00
77325;BME280;66387;53.440;10.390;2023-08-01T09:03:47;98893.25;;;18.28;99.37
77325;BME280;66387;53.440;10.390;2023-08-01T09:06:17;98887.81;;;18.18;97.86
77325;BME280;66387;53.440;10.390;2023-08-01T09:09:04;98894.66;;;18.08;98.84
77325;BME280;66387;53.440;10.390;2023-08-01T09:11:48;98882.63;;;17.93;99.59
77325;BME280;66387;53.440;10.390;2023-08-01T09:14:15;98876.34;;;17.83;98.66
77325;BME280;66387;53.440;10.390;2023-08-01T09:16:41;98880.44;;;17.74;100.00
77325;BME280;66387;53.440;10.390;2023-08-01T09:19:07;98887.72;;;17.58;100.00
77325;BME280;66387;53.440;10.390;2023-08-01T09:21:34;98887.47;;;17.48;100.00
77325;BME280;66387;53.440;10.390;2023-08-01T09:24:14;98891.06;;;17.60;100.00
77325;BME280;66387;53.440;10.390;2023-08-01T09:26:40;98879.19;;;17.80;100.00
77325;BME280;66387;53.440;10.390;2023-08-01T09:29:06;98878.88;;;17.84;100.00
77325;BME280;66387;53.440;10.390;2023-08-01T09:31:34;98869.41;;;17.94;100.00
77325;BME280;66387;53.440;10.390;2023-08-01T09:34:01;98867.69;;;18.30;99.96
77325;BME280;66387;53.440;10.390;2023-08-01T09:36:26;98868.84;;;18.62;100.00
77325;BME280;66387;53.440;10.390;2023-08-01T09:38:58;98862.22;;;18.80;96.25
77325;BME280;66387;53.440;10.390;2023-08-01T09:41:24;98866.47;;;18.94;90.88
77325;BME280;66387;53.440;10.390;2023-08-01T09:43:49;98859.09;;;19.10;91.92
77325;BME280;66387;53.440;10.390;2023-08-01T09:46:15;98871.13;;;18.90;90.78
77325;BME280;66387;53.440;10.390;2023-08-01T09:48:40;98864.38;;;18.51;91.96
77325;BME280;66387;53.440;10.390;2023-08-01T09:51:17;98873.81;;;18.30;91.91
77325;BME280;66387;53.440;10.390;2023-08-01T09:53:50;98871.50;;;18.26;93.07
77325;BME280;66387;53.440;10.390;2023-08-01T09:56:20;98860.50;;;18.21;93.95
77325;BME280;66387;53.440;10.390;2023-08-01T09:58:46;98856.88;;;18.10;92.47
77325;BME280;66387;53.440;10.390;2023-08-01T10:01:16;98866.06;;;18.16;92.67
77325;BME280;66387;53.440;10.390;2023-08-01T10:03:50;98871.22;;;18.41;92.21
77325;BME280;66387;53.440;10.390;2023-08-01T10:06:21;98857.72;;;18.82;89.16
77325;BME280;66387;53.440;10.390;2023-08-01T10:08:47;98861.28;;;19.27;87.68
77325;BME280;66387;53.440;10.390;2023-08-01T10:11:16;98864.34;;;19.45;87.38
77325;BME280;66387;53.440;10.390;2023-08-01T10:13:42;98865.91;;;19.47;85.17
77325;BME280;66387;53.440;10.390;2023-08-01T10:16:09;98857.16;;;19.69;87.78
77325;BME280;66387;53.440;10.390;2023-08-01T10:18:34;98852.81;;;19.35;85.69
77325;BME280;66387;53.440;10.390;2023-08-01T10:21:02;98857.06;;;19.14;85.91
77325;BME280;66387;53.440;10.390;2023-08-01T10:23:28;98865.94;;;19.24;84.54
77325;BME280;66387;53.440;10.390;2023-08-01T10:25:54;98865.06;;;19.69;84.55
77325;BME280;66387;53.440;10.390;2023-08-01T10:28:30;98864.72;;;19.85;80.41
77325;BME280;66387;53.440;10.390;2023-08-01T10:31:15;98862.50;;;20.23;80.75
77325;BME280;66387;53.440;10.390;2023-08-01T10:33:43;98877.25;;;20.69;80.38
77325;BME280;66387;53.440;10.390;2023-08-01T10:36:22;98865.81;;;20.47;77.24
77325;BME280;66387;53.440;10.390;2023-08-01T10:38:55;98858.81;;;20.69;76.80
77325;BME280;66387;53.440;10.390;2023-08-01T10:41:29;98875.09;;;20.94;77.43
77325;BME280;66387;53.440;10.390;2023-08-01T10:44:23;98863.56;;;20.75;74.61
77325;BME280;66387;53.440;10.390;2023-08-01T10:46:52;98868.53;;;20.89;74.71
77325;BME280;66387;53.440;10.390;2023-08-01T10:49:19;98868.69;;;21.08;73.98
77325;BME280;66387;53.440;10.390;2023-08-01T10:51:44;98866.13;;;20.65;75.43
77325;BME280;66387;53.440;10.390;2023-08-01T10:54:21;98861.81;;;20.64;74.21
77325;BME280;66387;53.440;10.390;2023-08-01T10:56:47;98864.59;;;20.51;75.04
77325;BME280;66387;53.440;10.390;2023-08-01T10:59:14;98869.44;;;20.35;75.32
77325;BME280;66387;53.440;10.390;2023-08-01T11:01:48;98857.72;;;20.28;75.51
77325;BME280;66387;53.440;10.390;2023-08-01T11:04:15;98850.75;;;20.70;73.99
77325;BME280;66387;53.440;10.390;2023-08-01T11:06:48;98854.28;;;20.80;70.92
77325;BME280;66387;53.440;10.390;2023-08-01T11:09:21;98851.91;;;21.30;70.13
77325;BME280;66387;53.440;10.390;2023-08-01T11:11:49;98861.75;;;21.88;69.81
77325;BME280;66387;53.440;10.390;2023-08-01T11:14:14;98868.97;;;22.17;68.51
77325;BME280;66387;53.440;10.390;2023-08-01T11:16:40;98864.66;;;22.16;66.63
77325;BME280;66387;53.440;10.390;2023-08-01T11:19:17;98870.38;;;22.11;64.81
77325;BME280;66387;53.440;10.390;2023-08-01T11:21:43;98870.22;;;22.13;65.24
77325;BME280;66387;53.440;10.390;2023-08-01T11:24:09;98860.72;;;22.00;63.92
77325;BME280;66387;53.440;10.390;2023-08-01T11:26:34;98865.50;;;22.16;64.36
77325;BME280;66387;53.440;10.390;2023-08-01T11:29:02;98861.63;;;21.90;63.63
77325;BME280;66387;53.440;10.390;2023-08-01T11:31:28;98849.94;;;22.42;65.33
77325;BME280;66387;53.440;10.390;2023-08-01T11:33:57;98847.34;;;22.61;61.51
77325;BME280;66387;53.440;10.390;2023-08-01T11:36:26;98859.41;;;22.44;61.52
77325;BME280;66387;53.440;10.390;2023-08-01T11:38:52;98854.28;;;22.43;62.82
77325;BME280;66387;53.440;10.390;2023-08-01T11:41:17;98860.66;;;22.31;62.10
77325;BME280;66387;53.440;10.390;2023-08-01T11:43:43;98865.31;;;22.08;62.41
77325;BME280;66387;53.440;10.390;2023-08-01T11:46:09;98872.72;;;22.14;62.73
77325;BME280;66387;53.440;10.390;2023-08-01T11:48:35;98897.50;;;21.62;62.75
77325;BME280;66387;53.440;10.390;2023-08-01T11:51:01;98900.13;;;20.36;64.79
77325;BME280;66387;53.440;10.390;2023-08-01T11:53:27;98916.44;;;19.40;68.21
77325;BME280;66387;53.440;10.390;2023-08-01T11:55:53;98932.31;;;18.92;72.33
77325;BME280;66387;53.440;10.390;2023-08-01T11:58:34;98953.34;;;18.32;84.18
77325;BME280;66387;53.440;10.390;2023-08-01T12:01:13;98965.13;;;17.51;92.23
77325;BME280;66387;53.440;10.390;2023-08-01T12:03:49;98962.75;;;17.08;97.81
77325;BME280;66387;53.440;10.390;2023-08-01T12:06:16;98972.41;;;16.81;96.39
77325;BME280;66387;53.440;10.390;2023-08-01T12:08:43;98964.47;;;16.68;100.00
77325;BME280;66387;53.440;10.390;2023-08-01T12:11:22;98955.31;;;16.76;100.00
77325;BME280;66387;53.440;10.390;2023-08-01T12:13:48;98954.69;;;16.85;100.00
77325;BME280;66387;53.440;10.390;2023-08-01T12:16:24;98955.44;;;16.87;100.00
77325;BME280;66387;53.440;10.390;2023-08-01T12:18:49;98960.00;;;16.97;100.00
77325;BME280;66387;53.440;10.390;2023-08-01T12:21:15;98968.22;;;17.18;100.00
77325;BME280;66387;53.440;10.390;2023-08-01T12:23:40;98964.59;;;17.46;100.00
77325;BME280;66387;53.440;10.390;2023-08-01T12:26:06;98969.59;;;17.76;100.00
77325;BME280;66387;53.440;10.390;2023-08-01T12:28:32;98969.03;;;18.08;100.00
77325;BME280;66387;53.440;10.390;2023-08-01T12:30:57;98964.59;;;18.22;100.00
77325;BME280;66387;53.440;10.390;2023-08-01T12:33:24;98967.44;;;18.31;100.00
77325;BME280;66387;53.440;10.390;2023-08-01T12:35:49;98969.75;;;18.36;100.00
77325;BME280;66387;53.440;10.390;2023-08-01T12:38:14;98975.94;;;18.22;98.95